Austin, Mississippi
Current Conditions -  °F | °C
As of 12:15 PM on Thursday 23 Oct 2014 (Local Time) from KUTA Reporting Station
Clear Clear  
Wind Chill: 16°   Ceiling: Unl
Heat Index: 16°   Visibility: 10mi
Dew Point:   Wind: 0mph
Humidity: 52%   Direction: NA
Pressure: 30.2"   Gusts: NA
Location:  34.6827°N, 90.3615°W
Report Text: KUTA 231715Z AUTO 00000KT 10SM CLR 16/06 A3020 RMK AO2
Loading
Personal Weather Stations






























Interactive Weather Map New forecast layout! Learn more

10-Day Weather Forecast

Advertisements
Track Severe Weather on mobile